Boonton, NJ (07005)

1:53 PM EST on December 18, 2014 (GMT -0500)
Lake Intervale | Change Station
CLOSE
Current Station
Personal Weather Station
Location: Boonton, NJ
Elevation: 407 ft
Nearby Weather Stations

Elev 407 ft 40.89 °N, 74.42 °W | Updated 21 seconds ago

Overcast
Overcast
38.9 °F
Feels Like 34 °F
N
7.0
Wind Variable Wind from SW
Gusts 8.0 mph

Today
High -- | Low -- °F
--% Chance of Precip.
Yesterday
High -- | Low -- °F
Precip. -- in
7:17 AM 4:31 PM
Waning Crescent, 13% visible
Pressure 29.98 in
Visibility 10.0 miles
Clouds Mostly Cloudy 3900 ft
Windchill 34 °F
Dew Point 29 °F
Humidity 67%
Rainfall 0.00 in
Snow Depth Not available.
UV 1 out of 12
Pollen .10 out of 12
Air Quality Not available.
Flu Activity Not available.
METAR KCDW 181753Z AUTO 31010G17KT 270V330 10SM BKN039 04/M05 A2996 RMK AO2 SLP151 T00441050 10044 20022 58018 TSNO

More Conditions Fewer Conditions

Pressure 29.98 in
Visibility 10.0 miles
Clouds Mostly Cloudy 3900 ft
Windchill 34 °F
Dew Point 29 °F
Humidity 67%
Rainfall 0.00 in
Snow Depth Not available.
UV 1 out of 12
Pollen .10 out of 12
Air Quality Not available.
Flu Activity Not available.
METAR KCDW 181753Z AUTO 31010G17KT 270V330 10SM BKN039 04/M05 A2996 RMK AO2 SLP151 T00441050 10044 20022 58018 TSNO

More Conditions Fewer Conditions

10-Day Weather Forecast

Almanac

Astronomy

Dec. 18, 2014 Rise Set
Actual Time
Civil Twilight
Nautical Twilight
Astronomical Twilight
Moon
Length of Visible Light
Length of Day
Tomorrow will be .
, % of the Moon is Illuminated

Today's Extremes

State Highs State Lows

Community

WunderPhotos

Upload Photos

1,778,973 photos uploaded!

WunderBlogs® & News

Nearby

Air Quality

  Air Quality AQ Index Pollutant
Not available.

Snow Depth

Station Depth Elevation

Earthquake Activity

City Distance Mag. Time & Date
Minimum magnitude displayed is 2.5.

Coastal Water Temperatures

Place Temperature

Nearby Weather Stations